createdAt,value
2023-01-23T00:01:33.025Z,95654.41
2023-01-23T00:04:18.800Z,95659.53
2023-01-23T00:07:04.558Z,95655.75
2023-01-23T00:09:50.257Z,95651.97
2023-01-23T00:12:35.789Z,95651.97
2023-01-23T00:15:21.212Z,95644.09
2023-01-23T00:18:06.990Z,95631.94
2023-01-23T00:20:52.412Z,95624.66
2023-01-23T00:23:38.345Z,95637.81
2023-01-23T00:26:24.843Z,95640.50
2023-01-23T00:29:10.481Z,95612.47
2023-01-23T00:31:56.288Z,95602.31
2023-01-23T00:34:42.303Z,95603.13
2023-01-23T00:37:28.199Z,95610.88
2023-01-23T00:40:13.916Z,95612.47
2023-01-23T00:42:59.388Z,95617.59
2023-01-23T00:45:45.131Z,95629.69
2023-01-23T00:48:31.543Z,95632.09
2023-01-23T00:51:17.526Z,95626.41
2023-01-23T00:54:03.375Z,95621.03
2023-01-23T00:56:49.197Z,95619.94
2023-01-23T00:59:35.285Z,95618.31
2023-01-23T01:02:22.645Z,95619.94
2023-01-23T01:05:08.579Z,95598.38
2023-01-23T01:07:54.159Z,95611.34
2023-01-23T01:10:40.448Z,95604.34
2023-01-23T01:13:26.239Z,95598.94
2023-01-23T01:16:11.875Z,95595.16
2023-01-23T01:18:57.386Z,95606.94
2023-01-23T01:21:43.240Z,95611.75
2023-01-23T01:24:30.213Z,95606.34
2023-01-23T01:27:16.031Z,95618.34
2023-01-23T01:30:01.563Z,95610.50
2023-01-23T01:32:48.326Z,95618.00
2023-01-23T01:35:34.438Z,95612.84
2023-01-23T01:38:22.716Z,95614.16
2023-01-23T01:41:08.530Z,95615.75
2023-01-23T01:43:57.222Z,95621.94
2023-01-23T01:46:43.429Z,95613.84
2023-01-23T01:49:31.177Z,95629.22
2023-01-23T01:52:16.991Z,95613.59
2023-01-23T01:55:03.773Z,95613.41
2023-01-23T01:57:53.414Z,95607.81
2023-01-23T02:00:39.388Z,95601.38
2023-01-23T02:03:25.214Z,95595.00
2023-01-23T02:06:11.056Z,95612.56
2023-01-23T02:08:58.157Z,95617.13
2023-01-23T02:11:46.025Z,95603.16
2023-01-23T02:14:31.468Z,95609.16
2023-01-23T02:17:19.447Z,95597.88
2023-01-23T02:20:09.073Z,95609.22
2023-01-23T02:23:04.703Z,95620.09
2023-01-23T02:25:53.414Z,95622.25
2023-01-23T02:28:45.495Z,95605.66
2023-01-23T02:31:35.289Z,95604.03
2023-01-23T02:34:22.817Z,95600.06
2023-01-23T02:37:09.364Z,95605.22
2023-01-23T02:39:54.797Z,95616.00
2023-01-23T02:42:40.883Z,95618.13
2023-01-23T02:45:27.545Z,95615.34
2023-01-23T02:48:12.974Z,95603.97
2023-01-23T02:50:58.550Z,95612.06
2023-01-23T02:53:44.281Z,95609.94
2023-01-23T02:56:29.892Z,95608.84
2023-01-23T02:59:34.114Z,95604.03
2023-01-23T03:02:19.718Z,95591.69
2023-01-23T03:05:07.217Z,95599.78
2023-01-23T03:07:52.618Z,95601.94
2023-01-23T03:10:38.211Z,95591.69
2023-01-23T03:13:23.864Z,95595.47
2023-01-23T03:16:10.182Z,95600.88
2023-01-23T03:18:57.689Z,95610.03
2023-01-23T03:21:43.117Z,95609.22
2023-01-23T03:24:29.005Z,95571.28
2023-01-23T03:27:14.507Z,95582.66
2023-01-23T03:30:15.942Z,95600.22
2023-01-23T03:33:01.987Z,95596.19
2023-01-23T03:35:48.959Z,95593.00
2023-01-23T03:38:34.502Z,95600.56
2023-01-23T03:41:27.650Z,95597.34
2023-01-23T03:44:19.057Z,95592.56
2023-01-23T03:47:06.470Z,95594.47
2023-01-23T03:49:52.678Z,95589.34
2023-01-23T03:52:38.479Z,95598.53
2023-01-23T03:55:25.090Z,95571.88
2023-01-23T03:58:11.867Z,95570.00
2023-01-23T04:01:03.614Z,95582.38
2023-01-23T04:03:52.711Z,95567.25
2023-01-23T04:06:39.420Z,95562.28
2023-01-23T04:09:28.124Z,95558.91
2023-01-23T04:12:16.601Z,95555.56
2023-01-23T04:15:06.794Z,95568.38
2023-01-23T04:17:53.504Z,95560.72
2023-01-23T04:20:41.744Z,95563.81
2023-01-23T04:23:27.614Z,95559.97
2023-01-23T04:26:13.463Z,95566.34
2023-01-23T04:29:01.085Z,95576.47
2023-01-23T04:31:47.021Z,95581.25
2023-01-23T04:34:33.919Z,95566.13
2023-01-23T04:37:20.023Z,95582.72
2023-01-23T04:40:05.758Z,95595.31
2023-01-23T04:43:00.474Z,95607.72
2023-01-23T04:46:01.617Z,95602.31
2023-01-23T04:48:53.462Z,95608.81
2023-01-23T04:51:40.804Z,95605.41
2023-01-23T04:54:27.361Z,95597.91
2023-01-23T04:57:12.968Z,95602.78
2023-01-23T05:00:00.539Z,95610.88
2023-01-23T05:02:48.460Z,95620.06
2023-01-23T05:05:34.769Z,95617.88
2023-01-23T05:08:20.665Z,95601.69
2023-01-23T05:11:14.815Z,95608.91
2023-01-23T05:14:00.358Z,95611.00
2023-01-23T05:16:48.225Z,95609.09
2023-01-23T05:19:36.989Z,95610.69
2023-01-23T05:22:25.069Z,95616.91
2023-01-23T05:25:12.923Z,95624.69
2023-01-23T05:27:58.467Z,95624.69
2023-01-23T05:30:44.607Z,95624.69
2023-01-23T05:33:46.160Z,95639.25
2023-01-23T05:36:32.009Z,95645.47
2023-01-23T05:39:17.453Z,95643.06
2023-01-23T05:42:03.526Z,95653.31
2023-01-23T05:45:01.361Z,95644.66
2023-01-23T05:47:57.113Z,95645.47
2023-01-23T05:50:46.851Z,95633.06
2023-01-23T05:53:33.046Z,95644.66
2023-01-23T05:56:19.062Z,95644.66
2023-01-23T05:59:23.237Z,95638.75
2023-01-23T06:02:31.811Z,95637.16
2023-01-23T06:05:37.769Z,95643.63
2023-01-23T06:08:32.032Z,95632.84
2023-01-23T06:11:17.627Z,95649.03
2023-01-23T06:14:03.020Z,95652.81
2023-01-23T06:16:51.961Z,95646.03
2023-01-23T06:19:40.243Z,95656.81
2023-01-23T06:22:27.042Z,95660.84
2023-01-23T06:25:21.966Z,95655.44
2023-01-23T06:28:07.884Z,95684.00
2023-01-23T06:30:54.387Z,95665.94
2023-01-23T06:33:53.154Z,95675.63
2023-01-23T06:36:42.981Z,95660.53
2023-01-23T06:39:30.228Z,95671.34
2023-01-23T06:42:17.065Z,95685.63
2023-01-23T06:45:07.633Z,95683.91
2023-01-23T06:47:54.168Z,95670.13
2023-01-23T06:50:41.458Z,95682.81
2023-01-23T06:53:27.351Z,95690.34
2023-01-23T06:56:14.066Z,95692.44
2023-01-23T06:59:00.700Z,95697.84
2023-01-23T07:01:51.141Z,95697.25
2023-01-23T07:04:41.057Z,95691.06
2023-01-23T07:07:26.706Z,95705.84
2023-01-23T07:10:12.504Z,95694.47
2023-01-23T07:12:59.084Z,95684.47
2023-01-23T07:15:46.113Z,95686.88
2023-01-23T07:18:32.787Z,95700.09
2023-01-23T07:21:20.185Z,95687.28
2023-01-23T07:24:05.844Z,95691.31
2023-01-23T07:26:51.402Z,95699.09
2023-01-23T07:29:37.841Z,95710.69
2023-01-23T07:32:23.332Z,95714.72
2023-01-23T07:35:09.229Z,95723.28
2023-01-23T07:37:54.856Z,95720.13
2023-01-23T07:40:43.072Z,95722.88
2023-01-23T07:43:28.825Z,95725.06
2023-01-23T07:46:16.384Z,95734.25
2023-01-23T07:49:02.051Z,95738.66
2023-01-23T07:51:51.600Z,95737.84
2023-01-23T07:54:37.220Z,95753.22
2023-01-23T07:57:25.859Z,95734.88
2023-01-23T08:00:11.937Z,95727.84
2023-01-23T08:03:00.245Z,95733.78
2023-01-23T08:05:48.555Z,95743.44
2023-01-23T08:08:40.944Z,95749.84
2023-01-23T08:11:27.940Z,95752.03
2023-01-23T08:14:15.859Z,95744.69
2023-01-23T08:17:01.831Z,95769.25
2023-01-23T08:19:51.024Z,95756.84
2023-01-23T08:22:40.751Z,95775.69
2023-01-23T08:25:27.751Z,95748.69
2023-01-23T08:28:13.111Z,95758.69
2023-01-23T08:31:07.029Z,95744.88
2023-01-23T08:33:52.538Z,95762.97
2023-01-23T08:36:39.160Z,95759.50
2023-01-23T08:39:24.756Z,95760.88
2023-01-23T08:42:10.716Z,95764.38
2023-01-23T08:45:06.645Z,95760.25
2023-01-23T08:47:52.274Z,95748.69
2023-01-23T08:50:38.075Z,95742.00
2023-01-23T08:53:36.063Z,95744.88
2023-01-23T08:56:25.979Z,95761.06
2023-01-23T08:59:11.251Z,95778.28
2023-01-23T09:02:01.072Z,95753.69
2023-01-23T09:04:46.815Z,95756.63
2023-01-23T09:07:32.233Z,95772.50
2023-01-23T09:10:18.014Z,95765.72
2023-01-23T09:13:04.328Z,95789.50
2023-01-23T09:15:49.673Z,95778.69
2023-01-23T09:18:35.848Z,95791.09
2023-01-23T09:21:21.200Z,95788.41
2023-01-23T09:24:07.047Z,95783.22
2023-01-23T09:26:52.591Z,95785.91
2023-01-23T09:29:38.074Z,95778.63
2023-01-23T09:32:24.471Z,95774.53
2023-01-23T09:35:12.060Z,95780.75
2023-01-23T09:38:00.617Z,95773.22
2023-01-23T09:40:50.563Z,95773.75
2023-01-23T09:43:50.290Z,95784.53
2023-01-23T09:46:39.716Z,95768.91
2023-01-23T09:49:28.467Z,95786.72
2023-01-23T09:52:20.095Z,95792.13
2023-01-23T09:55:14.169Z,95799.69
2023-01-23T09:58:01.239Z,95788.09
2023-01-23T10:00:52.871Z,95785.13
2023-01-23T10:03:39.424Z,95780.53
2023-01-23T10:06:31.725Z,95774.84
2023-01-23T10:09:18.012Z,95775.41
2023-01-23T10:12:12.661Z,95774.91
2023-01-23T10:14:58.970Z,95785.69
2023-01-23T10:17:52.113Z,95769.44
2023-01-23T10:20:48.190Z,95770.34
2023-01-23T10:23:50.588Z,95773.97
2023-01-23T10:26:42.507Z,95759.78
2023-01-23T10:29:32.937Z,95755.41
2023-01-23T10:32:25.177Z,95751.81
2023-01-23T10:35:16.022Z,95759.13
2023-01-23T10:38:13.005Z,95761.03
2023-01-23T10:41:13.782Z,95767.81
2023-01-23T10:43:59.272Z,95770.00
2023-01-23T10:46:49.270Z,95778.41
2023-01-23T10:49:37.674Z,95769.50
2023-01-23T10:52:29.616Z,95775.41
2023-01-23T10:55:20.450Z,95780.81
2023-01-23T10:58:08.445Z,95775.41
2023-01-23T11:00:54.003Z,95777.59
2023-01-23T11:03:39.922Z,95789.19
2023-01-23T11:06:26.249Z,95778.09
2023-01-23T11:09:21.155Z,95785.41
2023-01-23T11:12:06.988Z,95782.41
2023-01-23T11:14:53.185Z,95795.91
2023-01-23T11:17:39.404Z,95774.81
2023-01-23T11:20:38.498Z,95776.94
2023-01-23T11:23:25.407Z,95785.03
2023-01-23T11:26:20.447Z,95787.22
2023-01-23T11:29:22.661Z,95778.53
2023-01-23T11:32:11.189Z,95773.63
2023-01-23T11:35:36.261Z,95789.22
2023-01-23T11:38:30.609Z,95781.41
2023-01-23T11:41:35.497Z,95782.81
2023-01-23T11:49:15.793Z,95786.50
2023-01-23T11:52:20.172Z,95792.81
2023-01-23T11:55:26.392Z,95783.97
2023-01-23T11:58:14.575Z,95790.75
2023-01-23T12:01:19.075Z,95789.19
2023-01-23T12:04:52.302Z,95788.38
2023-01-23T12:12:07.104Z,95794.44
2023-01-23T12:14:58.818Z,95796.66
2023-01-23T12:26:56.298Z,95806.19
2023-01-23T12:29:45.060Z,95807.28
2023-01-23T12:37:22.229Z,95807.09
2023-01-23T12:40:36.430Z,95815.47
2023-01-23T12:48:04.848Z,95827.44
2023-01-23T12:50:51.672Z,95821.84
2023-01-23T13:15:41.630Z,95881.38
2023-01-23T13:22:32.693Z,95889.50
2023-01-23T13:25:18.487Z,95888.41
2023-01-23T13:28:44.552Z,95900.81
2023-01-23T13:35:56.221Z,95911.09
2023-01-23T13:38:46.323Z,95918.66
2023-01-23T13:41:32.597Z,95931.63
2023-01-23T13:44:42.001Z,95935.44
2023-01-23T14:25:06.357Z,95995.94
2023-01-23T14:28:04.331Z,96006.72
2023-01-23T14:31:00.695Z,96010.50
2023-01-23T14:33:46.536Z,96016.16
2023-01-23T14:36:32.885Z,96018.38
2023-01-23T14:39:19.681Z,96017.03
2023-01-23T14:42:11.445Z,96030.00
2023-01-23T14:44:58.462Z,96037.56
2023-01-23T14:47:48.978Z,96031.63
2023-01-23T14:50:39.258Z,96025.72
2023-01-23T14:53:25.794Z,96026.84
2023-01-23T14:56:11.967Z,96031.69
2023-01-23T14:58:58.557Z,96040.88
2023-01-23T15:01:56.205Z,96042.50
2023-01-23T15:04:41.957Z,96047.38
2023-01-23T15:07:29.852Z,96044.16
2023-01-23T15:10:20.230Z,96050.38
2023-01-23T15:13:12.678Z,96050.91
2023-01-23T15:15:58.983Z,96052.81
2023-01-23T15:19:08.013Z,96054.69
2023-01-23T15:22:05.081Z,96056.31
2023-01-23T15:24:50.521Z,96054.69
2023-01-23T15:27:37.240Z,96062.25
2023-01-23T15:30:45.943Z,96064.69
2023-01-23T15:33:32.564Z,96070.13
2023-01-23T15:36:21.057Z,96064.00
2023-01-23T15:39:13.576Z,96072.38
2023-01-23T15:42:00.746Z,96065.09
2023-01-23T15:44:46.977Z,96072.38
2023-01-23T15:47:32.959Z,96074.56
2023-01-23T15:50:18.691Z,96079.44
2023-01-23T15:53:04.600Z,96070.81
2023-01-23T15:55:50.297Z,96084.56
2023-01-23T15:58:35.847Z,96083.22
2023-01-23T16:01:21.838Z,96085.91
2023-01-23T16:04:08.315Z,96093.50
2023-01-23T16:06:53.975Z,96096.19
2023-01-23T16:09:40.526Z,96091.88
2023-01-23T16:12:29.753Z,96097.25
2023-01-23T16:15:22.274Z,96091.88
2023-01-23T16:18:07.838Z,96099.94
2023-01-23T16:20:54.361Z,96101.03
2023-01-23T16:23:47.126Z,96097.25
2023-01-23T16:26:33.829Z,96108.03
2023-01-23T16:29:27.652Z,96117.19
2023-01-23T16:32:13.510Z,96117.19
2023-01-23T16:34:59.372Z,96117.19
2023-01-23T16:37:45.635Z,96121.50
2023-01-23T16:40:32.169Z,96120.97
2023-01-23T16:43:17.663Z,96125.53
2023-01-23T16:46:03.533Z,96129.31
2023-01-23T16:48:50.675Z,96133.34
2023-01-23T16:51:36.439Z,96140.88
2023-01-23T16:54:22.013Z,96144.66
2023-01-23T16:57:09.554Z,96145.78
2023-01-23T16:59:56.584Z,96138.25
2023-01-23T17:02:42.119Z,96144.69
2023-01-23T17:05:27.897Z,96149.56
2023-01-23T17:08:23.162Z,96151.44
2023-01-23T17:11:08.542Z,96148.19
2023-01-23T17:13:59.321Z,96156.03
2023-01-23T17:16:45.647Z,96159.00
2023-01-23T17:19:41.837Z,96164.16
2023-01-23T17:22:39.533Z,96168.47
2023-01-23T17:25:25.755Z,96165.22
2023-01-23T17:28:17.583Z,96171.69
2023-01-23T17:31:04.996Z,96170.06
2023-01-23T17:33:55.779Z,96156.63
2023-01-23T17:36:41.441Z,96160.38
2023-01-23T17:39:34.963Z,96161.19
2023-01-23T17:42:22.027Z,96165.78
2023-01-23T17:45:09.045Z,96171.16
2023-01-23T17:47:56.142Z,96167.94
2023-01-23T17:50:45.446Z,96168.50
2023-01-23T17:53:30.996Z,96159.59
2023-01-23T17:56:48.941Z,96166.38
2023-01-23T17:59:34.718Z,96170.94
2023-01-23T18:02:46.321Z,96174.69
2023-01-23T18:05:32.124Z,96168.50
2023-01-23T18:08:22.213Z,96169.56
2023-01-23T18:11:19.261Z,96163.09
2023-01-23T18:14:20.382Z,96161.22
2023-01-23T18:17:13.467Z,96175.47
2023-01-23T18:20:01.377Z,96166.38
2023-01-23T18:22:49.595Z,96169.31
2023-01-23T18:25:36.051Z,96170.66
2023-01-23T18:28:21.811Z,96173.91
2023-01-23T18:31:12.051Z,96171.47
2023-01-23T18:34:11.954Z,96173.34
2023-01-23T18:37:16.494Z,96173.34
2023-01-23T18:40:04.967Z,96178.72
2023-01-23T18:42:55.563Z,96177.16
2023-01-23T18:45:45.610Z,96178.22
2023-01-23T18:48:31.437Z,96181.72
2023-01-23T18:51:20.375Z,96180.91
2023-01-23T18:54:12.561Z,96181.72
2023-01-23T18:56:58.065Z,96186.28
2023-01-23T18:59:53.015Z,96191.66
2023-01-23T19:02:42.104Z,96186.28
2023-01-23T19:05:29.149Z,96186.28
2023-01-23T19:08:32.720Z,96185.22
2023-01-23T19:11:18.258Z,96180.34
2023-01-23T19:14:07.208Z,96186.53
2023-01-23T19:16:55.672Z,96189.50
2023-01-23T19:19:41.848Z,96191.66
2023-01-23T19:22:39.685Z,96187.63
2023-01-23T19:25:25.219Z,96190.59
2023-01-23T19:28:10.985Z,96186.53
2023-01-23T19:30:57.819Z,96194.06
2023-01-23T19:33:43.661Z,96195.44
2023-01-23T19:36:30.082Z,96195.97
2023-01-23T19:39:15.556Z,96197.31
2023-01-23T19:42:01.185Z,96196.78
2023-01-23T19:44:46.777Z,96194.34
2023-01-23T19:47:32.492Z,96196.22
2023-01-23T19:50:19.588Z,96191.66
2023-01-23T19:53:05.031Z,96198.66
2023-01-23T19:55:50.856Z,96197.03
2023-01-23T19:58:36.651Z,96202.41
2023-01-23T20:01:25.537Z,96190.84
2023-01-23T20:04:16.105Z,96194.91
2023-01-23T20:07:01.815Z,96200.56
2023-01-23T20:09:47.422Z,96191.69
2023-01-23T20:12:38.955Z,96187.38
2023-01-23T20:15:25.522Z,96191.13
2023-01-23T20:18:11.686Z,96191.66
2023-01-23T20:20:59.906Z,96186.56
2023-01-23T20:23:46.274Z,96199.22
2023-01-23T20:26:32.168Z,96200.00
2023-01-23T20:29:17.953Z,96205.66
2023-01-23T20:32:03.879Z,96205.66
2023-01-23T20:34:49.992Z,96210.50
2023-01-23T20:37:35.594Z,96212.66
2023-01-23T20:40:21.779Z,96215.34
2023-01-23T20:43:07.229Z,96220.72
2023-01-23T20:45:53.208Z,96216.97
2023-01-23T20:48:39.566Z,96220.16
2023-01-23T20:51:26.492Z,96217.22
2023-01-23T20:54:12.223Z,96226.66
2023-01-23T20:56:57.992Z,96224.50
2023-01-23T20:59:43.327Z,96233.63
2023-01-23T21:02:34.153Z,96233.63
2023-01-23T21:05:20.487Z,96234.97
2023-01-23T21:08:06.499Z,96227.69
2023-01-23T21:10:56.472Z,96235.78
2023-01-23T21:13:43.557Z,96231.19
2023-01-23T21:16:29.553Z,96236.59
2023-01-23T21:19:15.729Z,96234.16
2023-01-23T21:22:01.687Z,96239.00
2023-01-23T21:24:47.812Z,96240.63
2023-01-23T21:27:33.492Z,96243.31
2023-01-23T21:30:19.381Z,96235.25
2023-01-23T21:33:05.834Z,96237.94
2023-01-23T21:35:52.141Z,96236.31
2023-01-23T21:38:38.421Z,96242.75
2023-01-23T21:41:26.628Z,96246.53
2023-01-23T21:44:12.839Z,96243.28
2023-01-23T21:46:59.661Z,96241.41
2023-01-23T21:49:44.979Z,96246.53
2023-01-23T21:52:31.990Z,96241.69
2023-01-23T21:55:18.834Z,96243.03
2023-01-23T21:58:04.583Z,96237.09
2023-01-23T22:01:14.879Z,96239.00
2023-01-23T22:04:01.849Z,96238.47
2023-01-23T22:06:50.531Z,96236.84
2023-01-23T22:09:36.780Z,96232.00
2023-01-23T22:12:23.342Z,96235.22
2023-01-23T22:15:09.303Z,96226.09
2023-01-23T22:17:56.121Z,96227.44
2023-01-23T22:20:41.757Z,96225.53
2023-01-23T22:23:28.365Z,96230.13
2023-01-23T22:26:13.862Z,96232.50
2023-01-23T22:28:59.219Z,96238.69
2023-01-23T22:31:45.021Z,96244.88
2023-01-23T22:34:30.813Z,96242.75
2023-01-23T22:37:16.523Z,96237.38
2023-01-23T22:40:03.464Z,96235.75
2023-01-23T22:42:48.881Z,96242.75
2023-01-23T22:45:34.836Z,96239.00
2023-01-23T22:48:20.399Z,96235.75
2023-01-23T22:51:07.252Z,96233.91
2023-01-23T22:53:56.465Z,96237.38
2023-01-23T22:56:44.130Z,96234.66
2023-01-23T22:59:30.021Z,96228.75
2023-01-23T23:02:17.135Z,96231.97
2023-01-23T23:05:03.270Z,96222.53
2023-01-23T23:07:48.758Z,96223.88
2023-01-23T23:10:34.511Z,96225.75
2023-01-23T23:13:20.042Z,96214.72
2023-01-23T23:16:06.916Z,96217.91
2023-01-23T23:18:53.358Z,96215.75
2023-01-23T23:21:38.949Z,96228.13
2023-01-23T23:24:24.917Z,96222.19
2023-01-23T23:27:10.866Z,96225.41
2023-01-23T23:29:56.222Z,96227.03
2023-01-23T23:32:42.064Z,96224.59
2023-01-23T23:35:27.474Z,96220.56
2023-01-23T23:38:13.063Z,96221.34
2023-01-23T23:40:59.874Z,96224.28
2023-01-23T23:43:46.462Z,96226.94
2023-01-23T23:46:32.354Z,96235.78
2023-01-23T23:49:18.137Z,96237.63
2023-01-23T23:52:03.909Z,96233.31
2023-01-23T23:54:49.545Z,96239.72
2023-01-23T23:57:35.133Z,96244.53
